Essex, IA (51638)

7:34 PM CDT on March 27, 2015 (GMT -0500)
Cottage and Maple | | Change Station
CLOSE
Current Station
Personal Weather Station
Location: Shenandoah, IA
Elevation: 1016 ft
Nearby Weather Stations

Elev 1016 ft 40.76 °N, 95.37 °W | Updated 1 second ago

Overcast
Overcast
37.5 °F
Feels Like 38 °F
N
0.0
Wind Variable Wind from West
Gusts 1.0 mph

Today
High -- | Low -- °F
--% Chance of Precip.
Yesterday
High -- | Low -- °F
Precip. -- in
7:13 AM 7:40 PM
First Quarter, 57% visible
Pressure 30.17 in
Visibility 10.0 miles
Clouds Few 4300 ft
Scattered Clouds 6000 ft
Overcast 7000 ft
Windchill 38 °F
Dew Point 22 °F
Humidity 53%
Rainfall in
Snow Depth Not available.
UV 0 out of 12
Pollen 5.80 out of 12
Air Quality Not available.
Flu Activity Not available.
METAR KSDA 280015Z AUTO 22007KT 10SM FEW043 SCT060 OVC070 04/M06 A3017 RMK AO2

More Conditions Fewer Conditions

Pressure 30.17 in
Visibility 10.0 miles
Clouds Few 4300 ft
Scattered Clouds 6000 ft
Overcast 7000 ft
Windchill 38 °F
Dew Point 22 °F
Humidity 53%
Rainfall in
Snow Depth Not available.
UV 0 out of 12
Pollen 5.80 out of 12
Air Quality Not available.
Flu Activity Not available.
METAR KSDA 280015Z AUTO 22007KT 10SM FEW043 SCT060 OVC070 04/M06 A3017 RMK AO2

More Conditions Fewer Conditions

10-Day Weather Forecast

Almanac

Astronomy

Mar. 27, 2015 Rise Set
Actual Time
Civil Twilight
Nautical Twilight
Astronomical Twilight
Moon
Length of Visible Light
Length of Day
Tomorrow will be .
, % of the Moon is Illuminated

Today's Extremes

State Highs State Lows

Community

WunderPhotos

Upload Photos

1,808,887 photos uploaded!

WunderBlogs® & News

Nearby

Air Quality

  Air Quality AQ Index Pollutant
Not available.

Snow Depth

Station Depth Elevation

Earthquake Activity

City Distance Mag. Time & Date
Minimum magnitude displayed is 2.5.

Coastal Water Temperatures

Place Temperature

Stations

Nearby Weather Stations

Station Location Temp. Windchill Dew Point Humidity Wind Precip. Elev Updated Type